Time;durP1;ratioP1;P1;durP2;ratioP2;P2;SDS_P1;SDS_P2;PMS_P1;PMS_P2;Temp;Humidity;BMP_temperature;BMP_pressure;BME280_temperature;BME280_humidity;BME280_pressure;Samples;Min_cycle;Max_cycle;Signal;HPM_P1;HPM_P2
2023/10/27 00:01:03;;;;;;;1.10;0.70;;;8.60;99.90;;;;;;5068057;28;19924;-64
2023/10/27 00:03:28;;;;;;;1.45;0.90;;;8.60;99.90;;;;;;5074556;28;20048;-63
2023/10/27 00:05:54;;;;;;;;;;;8.60;99.90;;;;;;5070020;28;20095;-63
2023/10/27 00:08:20;;;;;;;3.33;1.13;;;8.60;99.90;;;;;;5078335;28;19926;-65
2023/10/27 00:10:45;;;;;;;2.58;2.13;;;8.50;99.90;;;;;;5067913;28;20041;-64
2023/10/27 00:13:11;;;;;;;7.82;2.00;;;8.50;99.90;;;;;;5073665;28;20032;-64
2023/10/27 00:15:36;;;;;;;;;;;8.50;99.90;;;;;;5071363;28;20090;-64
2023/10/27 00:18:02;;;;;;;2.70;1.60;;;8.40;99.90;;;;;;5059996;28;19924;-63
2023/10/27 00:20:27;;;;;;;1.75;1.40;;;8.40;99.90;;;;;;5060559;28;20040;-64
2023/10/27 00:22:53;;;;;;;3.40;1.80;;;8.50;99.90;;;;;;5054699;28;20119;-64
2023/10/27 00:25:19;;;;;;;7.22;1.40;;;8.40;99.90;;;;;;5058484;28;20644;-63
2023/10/27 00:27:44;;;;;;;;;;;8.50;99.90;;;;;;5057712;28;20065;-64
2023/10/27 00:30:10;;;;;;;5.18;0.93;;;8.50;99.90;;;;;;5059160;28;19928;-64
2023/10/27 00:32:36;;;;;;;4.63;1.10;;;8.60;99.90;;;;;;5052370;28;20451;-64
2023/10/27 00:35:04;;;;;;;4.55;1.30;;;8.60;99.90;;;;;;5055143;28;20049;-64
2023/10/27 00:37:33;;;;;;;3.53;1.55;;;8.60;99.90;;;;;;5054560;28;20049;-63
2023/10/27 00:39:59;;;;;;;2.15;0.95;;;8.60;99.90;;;;;;5052390;28;20219;-64
2023/10/27 00:42:24;;;;;;;;;;;8.60;99.90;;;;;;5062894;28;20135;-64
2023/10/27 00:44:50;;;;;;;1.60;1.05;;;8.60;99.90;;;;;;5061627;28;20478;-64
2023/10/27 00:47:15;;;;;;;3.60;1.90;;;8.60;99.90;;;;;;5058719;28;20040;-64
2023/10/27 00:49:42;;;;;;;;;;;8.70;99.90;;;;;;5059444;28;20041;-64
2023/10/27 00:52:07;;;;;;;5.25;1.33;;;8.60;99.90;;;;;;5054905;28;19917;-64
2023/10/27 00:54:34;;;;;;;;;;;8.60;99.90;;;;;;5059074;28;20411;-64
2023/10/27 00:57:00;;;;;;;6.53;1.58;;;8.60;99.90;;;;;;5059066;28;19917;-63
2023/10/27 00:59:26;;;;;;;6.15;1.40;;;8.60;99.90;;;;;;5050850;28;20048;-64
2023/10/27 01:01:51;;;;;;;;;;;8.60;99.90;;;;;;5053701;28;20439;-64
2023/10/27 01:04:17;;;;;;;3.22;0.85;;;8.60;99.90;;;;;;5055236;28;19928;-64
2023/10/27 01:06:43;;;;;;;4.45;1.38;;;8.70;99.90;;;;;;5054689;28;20468;-64
2023/10/27 01:09:08;;;;;;;;;;;8.70;99.90;;;;;;5054150;28;20036;-64
2023/10/27 01:11:34;;;;;;;2.22;1.50;;;8.70;99.90;;;;;;5053046;28;20431;-62
2023/10/27 01:14:00;;;;;;;2.08;1.50;;;8.70;99.90;;;;;;5054904;28;20116;-63
2023/10/27 01:16:25;;;;;;;;;;;8.70;99.90;;;;;;5058979;28;20124;-64
2023/10/27 01:18:51;;;;;;;1.75;1.15;;;8.70;99.90;;;;;;5053092;28;19923;-64
2023/10/27 01:21:16;;;;;;;;;;;8.70;99.90;;;;;;5051751;28;20068;-63
2023/10/27 01:23:42;;;;;;;1.40;0.80;;;8.70;99.90;;;;;;5053670;28;19974;-63
2023/10/27 01:26:07;;;;;;;;;;;8.70;99.90;;;;;;5051036;28;20556;-63
2023/10/27 01:28:33;;;;;;;4.40;1.13;;;8.70;99.90;;;;;;5046588;28;19920;-64
2023/10/27 01:30:59;;;;;;;2.67;1.20;;;8.70;99.90;;;;;;5047880;28;20123;-63
2023/10/27 01:33:25;;;;;;;3.00;1.15;;;8.70;99.90;;;;;;5048506;28;20440;-61
2023/10/27 01:38:53;;;;;;;3.47;1.35;;;8.70;99.90;;;;;;5048112;28;19921;-64
2023/10/27 01:41:19;;;;;;;;;;;8.70;99.90;;;;;;5050797;28;20028;-65
2023/10/27 01:43:45;;;;;;;1.42;1.00;;;8.70;99.90;;;;;;5049869;28;20427;-64
2023/10/27 01:46:10;;;;;;;;;;;8.70;99.90;;;;;;5056204;28;20033;-64
2023/10/27 01:48:36;;;;;;;4.55;1.77;;;8.70;99.90;;;;;;5050397;28;20414;-64
2023/10/27 01:51:01;;;;;;;6.30;1.50;;;8.70;99.90;;;;;;5048554;28;20033;-64
2023/10/27 01:53:28;;;;;;;;;;;8.70;99.90;;;;;;5054408;28;20044;-64
2023/10/27 01:55:53;;;;;;;9.40;1.10;;;8.70;99.90;;;;;;5055049;28;19920;-66
2023/10/27 01:58:19;;;;;;;;;;;8.70;99.90;;;;;;5049394;28;20503;-64
2023/10/27 02:00:44;;;;;;;3.53;0.88;;;8.70;99.90;;;;;;5055367;28;20370;-64
2023/10/27 02:03:10;;;;;;;6.13;1.17;;;8.70;99.90;;;;;;5048257;28;20081;-62
2023/10/27 02:05:42;;;;;;;;;;;8.70;99.90;;;;;;5053423;28;20041;-62
2023/10/27 02:08:07;;;;;;;5.93;0.73;;;8.70;99.90;;;;;;5056860;28;19916;-62
2023/10/27 02:10:33;;;;;;;;;;;8.70;99.90;;;;;;5054259;28;20626;-62
2023/10/27 02:12:59;;;;;;;4.75;0.70;;;8.70;99.90;;;;;;5048351;28;19924;-63
2023/10/27 02:15:24;;;;;;;;;;;8.70;99.90;;;;;;5055768;28;20040;-61
2023/10/27 02:17:50;;;;;;;3.47;1.20;;;8.70;99.90;;;;;;5046438;28;19952;-61
2023/10/27 02:20:16;;;;;;;5.53;1.10;;;8.70;99.90;;;;;;5050342;28;20090;-63
2023/10/27 02:22:41;;;;;;;3.95;0.90;;;8.70;99.90;;;;;;5046827;28;20138;-64
2023/10/27 02:25:07;;;;;;;;;;;8.70;99.90;;;;;;5049930;28;20055;-64
2023/10/27 02:27:38;;;;;;;1.98;1.00;;;8.70;99.90;;;;;;5047391;28;19947;-64
2023/10/27 02:30:05;;;;;;;5.10;1.25;;;8.70;99.90;;;;;;5051217;28;20477;-64
2023/10/27 02:32:30;;;;;;;5.57;1.08;;;8.70;99.90;;;;;;5045814;28;20041;-64
2023/10/27 02:34:56;;;;;;;;;;;8.70;99.90;;;;;;5050856;28;20040;-64
2023/10/27 02:37:22;;;;;;;2.38;1.63;;;8.70;99.90;;;;;;5047416;28;19928;-64
2023/10/27 02:39:47;;;;;;;5.40;2.58;;;8.60;99.90;;;;;;5046728;28;20520;-64
2023/10/27 02:42:13;;;;;;;6.43;2.17;;;8.60;99.90;;;;;;5047213;28;20516;-64
2023/10/27 02:44:39;;;;;;;10.80;2.47;;;8.50;99.90;;;;;;5052645;28;20045;-63
2023/10/27 02:47:05;;;;;;;7.70;2.40;;;8.50;99.90;;;;;;5047370;28;20119;-64
2023/10/27 02:49:30;;;;;;;;;;;8.50;99.90;;;;;;5054980;28;20105;-64
2023/10/27 02:51:56;;;;;;;4.72;2.13;;;8.50;99.90;;;;;;5048535;28;19917;-64
2023/10/27 02:54:21;;;;;;;;;;;8.50;99.90;;;;;;5047105;28;20774;-64
2023/10/27 02:56:47;;;;;;;5.93;2.72;;;8.50;99.90;;;;;;5048241;28;19991;-64
2023/10/27 02:59:12;;;;;;;4.15;2.60;;;8.50;99.90;;;;;;5046288;28;20029;-64
2023/10/27 03:01:38;;;;;;;;;;;8.50;99.90;;;;;;5051252;28;20033;-64
2023/10/27 03:04:03;;;;;;;6.00;3.80;;;8.40;99.90;;;;;;5046772;28;19923;-64
2023/10/27 03:06:29;;;;;;;12.40;4.72;;;8.40;99.90;;;;;;5048714;28;20053;-64
2023/10/27 03:08:55;;;;;;;13.30;4.20;;;8.40;99.90;;;;;;5052572;28;20121;-64
2023/10/27 03:11:20;;;;;;;11.20;5.70;;;8.30;99.90;;;;;;5051678;28;20397;-64
2023/10/27 03:13:46;;;;;;;13.63;4.35;;;8.30;99.90;;;;;;5046004;28;20064;-64
2023/10/27 03:16:11;;;;;;;;;;;8.40;99.90;;;;;;5055657;28;20548;-64
2023/10/27 03:18:39;;;;;;;8.93;4.20;;;8.30;99.90;;;;;;5049756;28;19916;-63
2023/10/27 03:21:05;;;;;;;6.95;3.55;;;8.40;99.90;;;;;;5056022;28;20051;-63
2023/10/27 03:23:31;;;;;;;5.22;3.33;;;8.30;99.90;;;;;;5048489;28;20052;-63
2023/10/27 03:25:58;;;;;;;;;;;8.30;99.90;;;;;;5053606;28;20133;-62
2023/10/27 03:28:24;;;;;;;8.57;3.50;;;8.20;99.90;;;;;;5047840;28;19916;-63
2023/10/27 03:30:49;;;;;;;;;;;8.20;99.90;;;;;;5050881;28;20430;-62
2023/10/27 03:33:16;;;;;;;6.25;2.88;;;8.20;99.90;;;;;;5054737;28;20007;-63
2023/10/27 03:35:44;;;;;;;8.43;4.00;;;8.20;99.90;;;;;;5050435;28;20044;-63
2023/10/27 03:38:11;;;;;;;29.15;4.32;;;8.10;99.90;;;;;;5046468;28;20047;-63
2023/10/27 03:40:41;;;;;;;9.65;3.97;;;8.10;99.90;;;;;;5051596;28;20044;-63
2023/10/27 03:43:06;;;;;;;8.13;3.58;;;8.10;99.90;;;;;;5047332;28;20044;-63
2023/10/27 03:45:35;;;;;;;;;;;8.20;99.90;;;;;;5060131;28;20531;-63
2023/10/27 03:48:03;;;;;;;16.60;3.78;;;8.20;99.90;;;;;;5047258;28;19921;-63
2023/10/27 03:50:28;;;;;;;10.30;3.67;;;8.20;99.90;;;;;;5047756;28;20068;-63
2023/10/27 03:52:54;;;;;;;;;;;8.20;99.90;;;;;;5050184;28;20524;-63
2023/10/27 03:55:19;;;;;;;13.93;3.22;;;8.10;99.90;;;;;;5062462;28;20680;-64
2023/10/27 03:57:45;;;;;;;;;;;8.00;99.90;;;;;;5053168;28;20055;-63
2023/10/27 04:00:13;;;;;;;20.13;4.45;;;8.00;99.90;;;;;;5055014;28;19962;-63
2023/10/27 04:02:39;;;;;;;6.50;2.55;;;8.00;99.90;;;;;;5058913;28;20041;-64
2023/10/27 04:05:04;;;;;;;;;;;8.00;99.90;;;;;;5057576;28;20102;-62
2023/10/27 04:07:30;;;;;;;16.27;4.40;;;7.90;99.90;;;;;;5050537;28;19927;-62
2023/10/27 04:09:56;;;;;;;;;;;7.90;99.90;;;;;;5055493;28;20114;-62
2023/10/27 04:12:21;;;;;;;12.00;3.85;;;7.80;99.90;;;;;;5065947;28;19924;-64
2023/10/27 04:14:48;;;;;;;;;;;7.80;99.90;;;;;;5052875;28;20520;-64
2023/10/27 04:17:13;;;;;;;6.88;3.20;;;7.90;99.90;;;;;;5064413;28;19916;-64
2023/10/27 04:19:40;;;;;;;6.18;3.25;;;7.90;99.90;;;;;;5062188;28;20149;-64
2023/10/27 04:22:05;;;;;;;9.93;4.18;;;8.00;99.90;;;;;;5057105;28;20044;-65
2023/10/27 04:24:31;;;;;;;;;;;8.00;99.90;;;;;;5050343;28;20590;-66
2023/10/27 04:26:56;;;;;;;8.98;3.40;;;8.00;99.90;;;;;;5052624;28;20392;-66
2023/10/27 04:29:22;;;;;;;;;;;8.00;99.90;;;;;;5051911;28;20048;-66
2023/10/27 04:31:47;;;;;;;8.90;3.53;;;7.90;99.90;;;;;;5060521;28;19917;-63
2023/10/27 04:34:14;;;;;;;10.40;3.58;;;7.90;99.90;;;;;;5060007;28;20484;-64
2023/10/27 04:36:40;;;;;;;5.80;3.60;;;7.90;99.90;;;;;;5058069;28;20036;-64
2023/10/27 04:39:05;;;;;;;;;;;7.90;99.90;;;;;;5049543;28;20167;-62
2023/10/27 04:41:32;;;;;;;9.90;3.10;;;7.90;99.90;;;;;;5057396;28;19924;-63
2023/10/27 04:43:58;;;;;;;8.20;3.67;;;7.90;99.90;;;;;;5056491;28;20380;-63
2023/10/27 04:46:24;;;;;;;;;;;7.90;99.90;;;;;;5053900;28;20045;-62
2023/10/27 04:48:49;;;;;;;11.02;3.78;;;7.90;99.90;;;;;;5052217;28;19943;-63
2023/10/27 04:51:16;;;;;;;5.70;3.42;;;7.90;99.90;;;;;;5061189;28;20048;-63
2023/10/27 04:53:42;;;;;;;7.88;3.50;;;7.90;99.90;;;;;;5050584;28;20115;-63
2023/10/27 04:56:07;;;;;;;;;;;8.00;99.90;;;;;;5051307;28;20171;-63
2023/10/27 04:58:33;;;;;;;8.48;3.88;;;8.00;99.90;;;;;;5051351;28;20266;-60
2023/10/27 05:00:58;;;;;;;;;;;8.00;99.90;;;;;;5053271;28;20048;-63
2023/10/27 05:03:24;;;;;;;12.68;3.67;;;8.00;99.90;;;;;;5059859;28;19916;-62
2023/10/27 05:05:51;;;;;;;12.40;3.95;;;8.00;99.90;;;;;;5049673;28;20140;-62
2023/10/27 05:08:16;;;;;;;12.75;4.32;;;8.00;99.90;;;;;;5063109;28;20055;-65
2023/10/27 05:10:42;;;;;;;;;;;8.00;99.90;;;;;;5055963;28;20036;-66
2023/10/27 05:13:08;;;;;;;11.30;4.60;;;8.00;99.90;;;;;;5050752;28;19916;-61
2023/10/27 05:15:34;;;;;;;10.43;5.47;;;8.00;99.90;;;;;;5048728;28;20511;-64
2023/10/27 05:18:04;;;;;;;16.02;5.30;;;7.90;99.90;;;;;;5054428;28;20036;-64
2023/10/27 05:20:39;;;;;;;13.68;6.05;;;8.00;99.90;;;;;;5055258;28;20036;-64
2023/10/27 05:23:05;;;;;;;13.23;6.43;;;8.00;99.90;;;;;;5063871;28;20131;-62
2023/10/27 05:25:30;;;;;;;;;;;8.00;99.90;;;;;;5059914;28;20032;-66
2023/10/27 05:27:56;;;;;;;15.95;6.88;;;7.90;99.90;;;;;;5061788;28;19917;-66
2023/10/27 05:30:22;;;;;;;17.48;7.05;;;8.00;99.90;;;;;;5058469;28;20046;-68
2023/10/27 05:32:47;;;;;;;11.85;5.60;;;8.00;99.90;;;;;;5058611;28;20037;-66
2023/10/27 05:35:13;;;;;;;11.15;5.10;;;8.00;99.90;;;;;;5057101;28;20032;-65
2023/10/27 05:37:38;;;;;;;11.52;5.50;;;8.10;99.90;;;;;;5054750;28;20048;-65
2023/10/27 05:40:05;;;;;;;11.77;6.10;;;8.10;99.90;;;;;;5053363;28;20119;-64
2023/10/27 05:42:30;;;;;;;11.05;5.28;;;8.10;99.90;;;;;;5056792;28;20033;-65
2023/10/27 05:44:56;;;;;;;;;;;8.20;99.90;;;;;;5048587;28;20072;-64
2023/10/27 05:47:21;;;;;;;11.30;5.15;;;8.10;99.90;;;;;;5059372;28;19939;-65
2023/10/27 05:49:47;;;;;;;;;;;8.10;99.90;;;;;;5050488;28;20102;-65
2023/10/27 05:52:14;;;;;;;12.23;4.82;;;8.10;99.90;;;;;;5056868;28;19935;-66
2023/10/27 05:54:40;;;;;;;9.85;5.18;;;8.10;99.90;;;;;;5061214;28;20040;-64
2023/10/27 05:57:08;;;;;;;;;;;8.10;99.90;;;;;;5061595;28;20552;-64
2023/10/27 05:59:34;;;;;;;10.98;5.45;;;8.10;99.90;;;;;;5050720;28;20020;-64
2023/10/27 06:01:59;;;;;;;;;;;8.20;99.90;;;;;;5045445;28;20128;-65
2023/10/27 06:04:25;;;;;;;8.38;4.53;;;8.20;99.90;;;;;;5037151;28;20257;-66
2023/10/27 06:06:50;;;;;;;11.90;5.72;;;8.20;99.90;;;;;;5031749;28;20072;-65
2023/10/27 06:09:16;;;;;;;12.52;5.32;;;8.20;99.90;;;;;;5033110;28;20051;-65
2023/10/27 06:11:42;;;;;;;11.77;4.72;;;8.10;99.90;;;;;;5034561;28;20471;-65
2023/10/27 06:14:08;;;;;;;11.13;4.38;;;8.20;99.90;;;;;;5037286;28;20033;-65
2023/10/27 06:16:33;;;;;;;;;;;8.20;99.90;;;;;;5039149;28;20064;-65
2023/10/27 06:18:59;;;;;;;8.20;4.60;;;8.20;99.90;;;;;;5039566;28;20001;-64
2023/10/27 06:21:25;;;;;;;13.65;5.07;;;8.20;99.90;;;;;;5031772;28;20125;-63
2023/10/27 06:23:51;;;;;;;9.88;4.55;;;8.20;99.90;;;;;;5038485;28;20099;-63
2023/10/27 06:26:16;;;;;;;11.43;5.28;;;8.20;99.90;;;;;;5036265;28;20048;-63
2023/10/27 06:28:42;;;;;;;11.10;4.78;;;8.20;99.90;;;;;;5037157;28;20041;-64
2023/10/27 06:31:09;;;;;;;9.32;4.55;;;8.20;99.90;;;;;;5046639;28;20036;-65
2023/10/27 06:33:36;;;;;;;12.45;5.03;;;8.20;99.90;;;;;;5060610;28;20048;-64
2023/10/27 06:36:03;;;;;;;10.75;5.32;;;8.30;99.90;;;;;;5049351;28;20052;-64
2023/10/27 06:38:29;;;;;;;12.10;5.00;;;8.20;99.90;;;;;;5058528;28;20059;-63
2023/10/27 06:40:55;;;;;;;10.55;5.32;;;8.20;99.90;;;;;;5052745;28;20128;-64
2023/10/27 06:43:21;;;;;;;;;;;8.20;99.90;;;;;;5050988;28;20128;-63
2023/10/27 06:45:46;;;;;;;10.88;4.72;;;8.20;99.90;;;;;;5053505;28;20035;-64
2023/10/27 06:48:12;;;;;;;;;;;8.20;99.90;;;;;;5053217;28;20045;-64
2023/10/27 06:50:38;;;;;;;15.15;5.53;;;8.20;99.90;;;;;;5047220;28;19917;-64
2023/10/27 06:53:03;;;;;;;;;;;8.20;99.90;;;;;;5054117;28;20044;-63
2023/10/27 06:55:29;;;;;;;17.27;5.22;;;8.20;99.90;;;;;;5048511;28;19920;-64
2023/10/27 06:57:55;;;;;;;;;;;8.20;99.90;;;;;;5046982;28;20044;-64
2023/10/27 07:00:20;;;;;;;9.85;4.20;;;8.20;99.90;;;;;;5045500;28;19921;-64
2023/10/27 07:02:47;;;;;;;;;;;8.30;99.90;;;;;;5034292;28;20048;-63
2023/10/27 07:05:16;;;;;;;12.83;5.33;;;8.30;99.90;;;;;;5034590;28;19920;-62
2023/10/27 07:07:45;;;;;;;11.15;4.70;;;8.30;99.90;;;;;;5040099;28;20323;-64
2023/10/27 07:10:12;;;;;;;7.15;4.18;;;8.30;99.90;;;;;;5033988;28;20045;-63
2023/10/27 07:12:38;;;;;;;12.15;3.85;;;8.30;99.90;;;;;;5042144;28;20037;-64
2023/10/27 07:15:03;;;;;;;;;;;8.40;99.90;;;;;;5034807;28;20045;-64
2023/10/27 07:17:29;;;;;;;10.20;4.95;;;8.50;99.90;;;;;;5035998;28;19921;-62
2023/10/27 07:19:55;;;;;;;;;;;8.40;99.90;;;;;;5047973;28;20048;-64
2023/10/27 07:22:20;;;;;;;13.70;7.07;;;8.50;99.90;;;;;;5039019;28;19921;-64
2023/10/27 07:24:47;;;;;;;15.27;6.38;;;8.50;99.90;;;;;;5038085;28;20493;-64
2023/10/27 07:27:13;;;;;;;15.65;4.28;;;8.50;99.90;;;;;;5038609;28;20084;-64
2023/10/27 07:29:39;;;;;;;10.73;5.00;;;8.50;99.90;;;;;;5047078;28;20040;-64
2023/10/27 07:32:05;;;;;;;11.88;5.88;;;8.50;99.90;;;;;;5055372;28;20037;-62
2023/10/27 07:34:31;;;;;;;13.60;5.63;;;8.60;99.90;;;;;;5051156;28;20049;-63
2023/10/27 07:36:57;;;;;;;10.00;4.90;;;8.60;99.90;;;;;;5058351;28;20159;-64
2023/10/27 07:39:23;;;;;;;12.95;5.30;;;8.60;99.90;;;;;;5061972;28;20052;-63
2023/10/27 07:41:50;;;;;;;;;;;8.70;99.90;;;;;;5053318;28;20037;-62
2023/10/27 07:44:15;;;;;;;12.63;4.80;;;8.70;99.90;;;;;;5051109;28;19920;-64
2023/10/27 07:46:41;;;;;;;;;;;8.70;99.90;;;;;;5059643;28;20047;-64
2023/10/27 07:49:06;;;;;;;12.18;4.53;;;8.70;99.90;;;;;;5054997;28;19920;-65
2023/10/27 07:51:32;;;;;;;;;;;8.60;99.90;;;;;;5064054;28;20086;-64
2023/10/27 07:53:58;;;;;;;16.65;4.13;;;8.60;99.90;;;;;;5059586;28;20033;-64
2023/10/27 07:56:23;;;;;;;;;;;8.60;99.90;;;;;;5062067;28;20522;-63
2023/10/27 07:58:49;;;;;;;6.72;3.10;;;8.70;99.90;;;;;;5062913;28;19975;-63
2023/10/27 08:01:15;;;;;;;12.07;3.63;;;8.70;99.90;;;;;;5053912;28;20048;-63
2023/10/27 08:03:41;;;;;;;7.75;2.58;;;8.70;99.90;;;;;;5048410;28;20041;-62
2023/10/27 08:06:09;;;;;;;;;;;8.80;99.90;;;;;;5045374;28;20049;-62
2023/10/27 08:08:37;;;;;;;10.50;3.17;;;8.80;99.90;;;;;;5049318;28;19916;-63
2023/10/27 08:11:06;;;;;;;10.70;2.53;;;8.80;99.90;;;;;;5048067;28;20424;-64
2023/10/27 08:13:33;;;;;;;15.25;2.75;;;8.80;99.90;;;;;;5047925;28;20436;-64
2023/10/27 08:16:00;;;;;;;9.02;2.75;;;8.90;99.90;;;;;;5051032;28;20120;-64
2023/10/27 08:18:25;;;;;;;11.43;2.60;;;8.80;99.90;;;;;;5052298;28;20036;-64
2023/10/27 08:20:52;;;;;;;;;;;8.80;99.90;;;;;;5047750;28;20664;-65
2023/10/27 08:23:18;;;;;;;13.90;3.70;;;8.80;99.90;;;;;;5048989;28;19921;-64
2023/10/27 08:25:50;;;;;;;12.80;3.13;;;8.80;99.90;;;;;;5047294;28;20322;-64
2023/10/27 08:28:16;;;;;;;9.15;3.88;;;8.80;99.90;;;;;;5049821;28;20072;-64
2023/10/27 08:30:43;;;;;;;;;;;8.90;99.90;;;;;;5046874;28;20065;-64
2023/10/27 08:33:09;;;;;;;6.80;2.60;;;8.90;99.90;;;;;;5057166;28;19923;-64
2023/10/27 08:35:34;;;;;;;9.77;3.20;;;8.90;99.90;;;;;;5056207;28;20076;-64
2023/10/27 08:38:00;;;;;;;;;;;9.00;99.90;;;;;;5050393;28;20061;-64
2023/10/27 08:40:27;;;;;;;9.55;2.30;;;9.00;99.90;;;;;;5052904;28;19917;-64
2023/10/27 08:42:55;;;;;;;6.63;2.67;;;9.10;99.90;;;;;;5057050;28;20049;-65
2023/10/27 08:45:22;;;;;;;11.18;2.83;;;9.10;99.90;;;;;;5055078;28;20094;-64
2023/10/27 08:47:48;;;;;;;5.90;1.98;;;9.10;99.90;;;;;;5058286;28;20074;-64
2023/10/27 08:50:13;;;;;;;;;;;9.20;99.90;;;;;;5054339;28;20585;-64
2023/10/27 08:52:39;;;;;;;6.70;2.20;;;9.20;99.90;;;;;;5055529;28;19975;-64
2023/10/27 08:55:09;;;;;;;;;;;9.20;99.90;;;;;;5058137;28;20043;-65
2023/10/27 08:57:35;;;;;;;7.30;2.35;;;9.20;99.90;;;;;;5053204;28;19966;-64
2023/10/27 09:00:00;;;;;;;;;;;9.30;99.90;;;;;;5051723;28;20049;-64
2023/10/27 09:02:33;;;;;;;8.13;2.70;;;9.40;99.90;;;;;;5050329;28;19939;-64
2023/10/27 09:05:01;;;;;;;9.23;2.35;;;9.40;99.90;;;;;;5044872;28;20053;-64
2023/10/27 09:07:26;;;;;;;7.03;2.00;;;9.50;99.90;;;;;;5038694;28;20069;-64
2023/10/27 09:09:52;;;;;;;;;;;9.50;99.90;;;;;;5042420;28;20151;-64
2023/10/27 09:12:29;;;;;;;6.03;1.33;;;9.50;99.90;;;;;;5046869;28;20015;-61
2023/10/27 09:14:59;;;;;;;1.55;0.90;;;9.60;99.90;;;;;;5044446;28;20052;-62
2023/10/27 09:17:25;;;;;;;4.13;1.00;;;9.60;99.90;;;;;;5042447;28;20052;-62
2023/10/27 09:20:06;;;;;;;;;;;9.60;99.90;;;;;;5051432;28;20041;-63
2023/10/27 09:22:32;;;;;;;2.38;0.65;;;9.60;99.90;;;;;;5048383;28;20296;-64
2023/10/27 09:25:12;;;;;;;;;;;9.50;99.90;;;;;;5050037;28;20037;-63
2023/10/27 09:27:42;;;;;;;1.17;0.40;;;9.50;99.90;;;;;;5048820;28;19920;-64
2023/10/27 09:30:11;;;;;;;2.20;1.08;;;9.40;99.90;;;;;;5044327;28;20048;-62
2023/10/27 09:32:36;;;;;;;0.57;0.40;;;9.40;99.90;;;;;;5054782;28;20455;-60
2023/10/27 09:35:09;;;;;;;;;;;9.40;99.90;;;;;;5062365;28;20033;-64
2023/10/27 09:37:37;;;;;;;2.40;1.00;;;9.40;99.90;;;;;;5058340;28;19979;-64
2023/10/27 09:40:06;;;;;;;3.08;0.40;;;9.50;99.90;;;;;;5058439;28;20040;-63
2023/10/27 09:42:35;;;;;;;1.90;0.50;;;9.50;99.90;;;;;;5057425;28;20041;-63
2023/10/27 09:45:16;;;;;;;0.77;0.50;;;9.50;99.90;;;;;;5060429;28;20036;-63
2023/10/27 09:47:43;;;;;;;3.17;0.50;;;9.60;99.90;;;;;;5057696;28;20048;-65
2023/10/27 09:50:14;;;;;;;2.63;0.75;;;9.60;99.90;;;;;;5058356;28;20036;-61
2023/10/27 09:52:43;;;;;;;2.45;0.40;;;9.60;99.90;;;;;;5057652;28;20106;-64
2023/10/27 09:55:12;;;;;;;2.78;0.50;;;9.50;99.90;;;;;;5053574;28;20036;-63
2023/10/27 09:57:39;;;;;;;1.23;0.80;;;9.60;99.90;;;;;;5058084;28;20040;-63
2023/10/27 10:00:08;;;;;;;1.20;0.65;;;9.60;99.90;;;;;;5058112;28;20979;-63
2023/10/27 10:02:35;;;;;;;1.65;0.30;;;9.50;99.90;;;;;;5051527;28;20521;-64
2023/10/27 10:05:01;;;;;;;1.77;0.40;;;9.50;99.90;;;;;;5059836;28;20512;-63
2023/10/27 10:07:33;;;;;;;;;;;9.50;99.90;;;;;;5058020;28;20045;-63
2023/10/27 10:10:34;;;;;;;0.40;0.30;;;9.50;99.90;;;;;;5062626;28;19924;-65
2023/10/27 10:13:14;;;;;;;1.55;0.40;;;9.50;99.90;;;;;;5046874;28;20068;-65
2023/10/27 10:15:40;;;;;;;2.50;0.35;;;9.50;99.90;;;;;;5053838;28;20078;-64
2023/10/27 10:18:08;;;;;;;0.22;0.10;;;9.50;99.90;;;;;;5061760;28;21102;-64
2023/10/27 10:20:49;;;;;;;2.75;0.30;;;9.40;99.90;;;;;;5056889;28;20052;-64
2023/10/27 10:23:16;;;;;;;0.38;0.20;;;9.40;99.90;;;;;;5060669;28;20060;-63
2023/10/27 10:25:54;;;;;;;0.57;0.15;;;9.40;99.90;;;;;;5052379;28;20036;-63
2023/10/27 10:28:20;;;;;;;0.45;0.20;;;9.40;99.90;;;;;;5058730;28;20120;-64
2023/10/27 10:30:46;;;;;;;;;;;9.40;99.90;;;;;;5056618;28;20523;-63
2023/10/27 10:33:23;;;;;;;1.30;0.30;;;9.50;99.90;;;;;;5059931;28;19939;-63
2023/10/27 10:35:51;;;;;;;1.23;0.20;;;9.50;99.90;;;;;;5057299;28;20608;-64
2023/10/27 10:38:19;;;;;;;0.60;0.20;;;9.50;99.90;;;;;;5054540;28;20455;-63
2023/10/27 10:40:56;;;;;;;1.20;0.30;;;9.50;99.90;;;;;;5054852;28;20116;-64
2023/10/27 10:43:36;;;;;;;1.02;0.40;;;9.50;99.90;;;;;;5049732;28;20107;-63
2023/10/27 10:46:03;;;;;;;0.25;0.20;;;9.60;99.90;;;;;;5049729;28;20051;-63
2023/10/27 10:48:49;;;;;;;0.43;0.20;;;9.60;99.90;;;;;;5052203;28;20052;-63
2023/10/27 10:51:26;;;;;;;1.67;0.57;;;9.60;99.90;;;;;;5049568;28;20047;-64
2023/10/27 10:53:52;;;;;;;;;;;9.60;99.90;;;;;;5052467;28;20040;-63
2023/10/27 10:56:18;;;;;;;4.20;0.50;;;9.60;99.90;;;;;;5052236;28;19920;-63
2023/10/27 10:58:44;;;;;;;1.27;0.32;;;9.60;99.90;;;;;;5056276;28;20721;-64
2023/10/27 11:01:17;;;;;;;;;;;9.60;99.90;;;;;;5062571;28;20838;-63
2023/10/27 11:03:48;;;;;;;0.73;0.20;;;9.60;99.90;;;;;;5051490;28;19955;-64
2023/10/27 11:06:14;;;;;;;1.15;0.20;;;9.60;99.90;;;;;;5057848;28;20451;-64
2023/10/27 11:08:40;;;;;;;;;;;9.50;99.90;;;;;;5061964;28;20075;-63
2023/10/27 11:11:07;;;;;;;1.05;0.20;;;9.50;99.90;;;;;;5059437;28;20645;-63
2023/10/27 11:13:39;;;;;;;0.55;0.30;;;9.50;99.90;;;;;;5061406;28;20040;-63
2023/10/27 11:16:13;;;;;;;0.20;0.10;;;9.50;99.90;;;;;;5055329;28;20119;-63
2023/10/27 11:18:39;;;;;;;0.68;0.20;;;9.50;99.90;;;;;;5055498;28;20060;-63
2023/10/27 11:21:04;;;;;;;;;;;9.40;99.90;;;;;;5057096;28;20045;-62
2023/10/27 11:23:31;;;;;;;3.80;0.40;;;9.40;99.90;;;;;;5054080;28;19916;-63
2023/10/27 11:26:02;;;;;;;1.50;0.40;;;9.40;99.90;;;;;;5055459;28;20443;-63
2023/10/27 11:28:29;;;;;;;1.75;0.50;;;9.40;99.90;;;;;;5057799;28;20099;-63
2023/10/27 11:31:12;;;;;;;2.50;0.30;;;9.40;99.90;;;;;;5044748;28;20037;-62
2023/10/27 11:34:02;;;;;;;4.18;0.40;;;9.50;99.90;;;;;;5033603;28;20037;-63
2023/10/27 11:36:42;;;;;;;0.30;0.30;;;9.50;99.90;;;;;;5033414;28;20076;-63
2023/10/27 11:39:13;;;;;;;1.00;0.30;;;9.50;99.90;;;;;;5034246;28;20033;-63
2023/10/27 11:41:43;;;;;;;3.03;0.28;;;9.50;99.90;;;;;;5034816;28;20497;-63
2023/10/27 11:44:08;;;;;;;0.38;0.20;;;9.60;99.90;;;;;;5033837;28;20187;-64
2023/10/27 11:46:34;;;;;;;;;;;9.60;99.90;;;;;;5034836;28;20676;-62
2023/10/27 11:49:00;;;;;;;2.65;0.10;;;9.70;99.90;;;;;;5033304;28;19956;-65
2023/10/27 11:51:26;;;;;;;;;;;9.70;99.90;;;;;;5041660;28;20108;-65
2023/10/27 11:53:51;;;;;;;1.80;0.30;;;9.70;99.90;;;;;;5035531;28;19971;-64
2023/10/27 11:56:17;;;;;;;;;;;9.70;99.90;;;;;;5034789;28;20045;-64
2023/10/27 11:58:43;;;;;;;0.95;0.20;;;9.80;99.90;;;;;;5035791;28;20398;-64
2023/10/27 12:01:09;;;;;;;;;;;9.70;99.90;;;;;;5044842;28;20063;-64
2023/10/27 12:03:35;;;;;;;0.95;0.47;;;9.70;99.90;;;;;;5056041;28;19917;-63
2023/10/27 12:06:00;;;;;;;;;;;9.70;99.90;;;;;;5057466;28;20085;-63
2023/10/27 12:08:26;;;;;;;1.20;0.40;;;9.60;99.90;;;;;;5046981;28;19970;-62
2023/10/27 12:10:52;;;;;;;3.90;0.38;;;9.60;99.90;;;;;;5048005;28;20057;-65
2023/10/27 12:13:22;;;;;;;3.50;0.30;;;9.60;99.90;;;;;;5051143;28;20124;-65
2023/10/27 12:15:48;;;;;;;0.75;0.40;;;9.60;99.90;;;;;;5057744;28;20037;-65
2023/10/27 12:18:14;;;;;;;;;;;9.70;99.90;;;;;;5057994;28;20102;-65
2023/10/27 12:20:40;;;;;;;1.17;0.20;;;9.70;99.90;;;;;;5060153;28;19943;-65
2023/10/27 12:23:09;;;;;;;;;;;9.70;99.90;;;;;;5055975;28;20441;-65
2023/10/27 12:25:35;;;;;;;0.90;0.63;;;9.70;99.90;;;;;;5054800;28;19916;-65
2023/10/27 12:28:01;;;;;;;3.20;0.82;;;9.70;99.90;;;;;;5051666;28;20053;-65
2023/10/27 12:30:27;;;;;;;;;;;9.60;99.90;;;;;;5057036;28;20040;-64
2023/10/27 12:32:53;;;;;;;0.80;0.50;;;9.60;99.90;;;;;;5058514;28;20710;-64
2023/10/27 12:35:21;;;;;;;1.05;0.77;;;9.60;99.90;;;;;;5056956;28;20044;-64
2023/10/27 12:37:48;;;;;;;3.97;1.05;;;9.70;99.90;;;;;;5052175;28;20048;-64
2023/10/27 12:40:13;;;;;;;2.25;1.10;;;9.70;99.90;;;;;;5051367;28;20048;-64
2023/10/27 12:42:39;;;;;;;;;;;9.70;99.90;;;;;;5059571;28;20495;-64
2023/10/27 12:45:05;;;;;;;3.17;1.13;;;9.70;99.90;;;;;;5054660;28;20805;-64
2023/10/27 12:47:31;;;;;;;1.65;1.20;;;9.70;99.90;;;;;;5056017;28;20072;-64
2023/10/27 12:49:58;;;;;;;;;;;9.60;99.90;;;;;;5051184;28;20045;-62
2023/10/27 12:52:26;;;;;;;3.05;1.55;;;9.60;99.90;;;;;;5059128;28;20312;-63
2023/10/27 12:54:52;;;;;;;2.45;1.77;;;9.60;99.90;;;;;;5059016;28;20047;-61
2023/10/27 12:57:18;;;;;;;;;;;9.60;99.90;;;;;;5057663;28;20070;-61
2023/10/27 12:59:45;;;;;;;2.65;1.80;;;9.60;99.90;;;;;;5050605;28;19916;-61
2023/10/27 13:02:12;;;;;;;3.38;2.10;;;9.60;99.90;;;;;;5055319;28;20131;-62
2023/10/27 13:04:38;;;;;;;2.00;1.65;;;9.60;99.90;;;;;;5054515;28;20648;-62
2023/10/27 13:07:03;;;;;;;;;;;9.60;99.90;;;;;;5056318;28;20136;-62
2023/10/27 13:09:29;;;;;;;4.50;2.88;;;9.60;99.90;;;;;;5049884;28;20024;-59
2023/10/27 13:11:56;;;;;;;3.58;2.08;;;9.60;99.90;;;;;;5058685;28;20511;-63
2023/10/27 13:14:22;;;;;;;3.80;2.63;;;9.60;99.90;;;;;;5051956;28;20071;-61
2023/10/27 13:16:49;;;;;;;4.28;2.90;;;9.60;99.90;;;;;;5054699;28;20072;-65
2023/10/27 13:19:15;;;;;;;6.78;2.58;;;9.70;99.90;;;;;;5051780;28;20045;-65